KLNK/LNK METAR and TAF weather

Enter ICAO airport designator
Station Type Date Time Source
KLNK METAR 2021/01/22 05:54 UTC NOAA

KLNK 220554Z 34006KT 10SM CLR M05/M08 A3015 RMK AO2 SLP219 T10501083 10011 21072 401061078 51017


Station Type Date Time Source
KLNK Decoded METAR 2021/01/22 05:54 UTC NOAA

LINCOLN MUNICIPAL AIRPORT, NE, United States (KLNK) 40-50N 96-46W 364M
Jan 22, 2021 - 12:54 AM EST / 2021.01.22 0554 UTC
Wind: from the NNW (340 degrees) at 7 MPH (6 KT):0
Visibility: 10 mile(s):0
Sky conditions: clear
Temperature: 23.0 F (-5.0 C)
Windchill: 14 F (-10 C):1
Dew Point: 17.1 F (-8.3 C)
Relative Humidity: 77%
Pressure (altimeter): 30.15 in. Hg (1020 hPa)
Pressure tendency: 0.05 inches (1.7 hPa) higher than three hours ago
ob: KLNK 220554Z 34006KT 10SM CLR M05/M08 A3015 RMK AO2 SLP219 T10501083 10011 21072 401061078 51017
cycle: 6

Station Type Date Time Source
KLNK TAF 2021/01/22 06:22 UTC NOAA

TAF KLNK 220520Z 2206/2306 34003KT P6SM FEW120
FM220900 02006KT P6SM SCT250
FM221300 03005KT P6SM BKN100
FM221800 VRB05KT P6SM BKN060

Example: see airport list